createdAt,value
2019-05-18T00:03:23.058Z,13.40
2019-05-18T00:08:28.042Z,13.30
2019-05-18T00:13:33.587Z,13.20
2019-05-18T00:18:38.792Z,13.10
2019-05-18T00:23:43.940Z,13.20
2019-05-18T00:28:48.763Z,13.10
2019-05-18T00:33:53.732Z,13.00
2019-05-18T00:38:59.917Z,12.70
2019-05-18T00:44:04.912Z,12.70
2019-05-18T00:49:09.185Z,12.60
2019-05-18T00:54:15.005Z,12.60
2019-05-18T00:59:20.124Z,12.50
2019-05-18T01:04:25.702Z,12.40
2019-05-18T01:09:31.211Z,12.30
2019-05-18T01:14:36.477Z,12.30
2019-05-18T01:19:42.118Z,12.30
2019-05-18T01:24:47.265Z,12.10
2019-05-18T01:29:52.973Z,12.10
2019-05-18T01:34:58.321Z,12.10
2019-05-18T01:40:04.779Z,12.10
2019-05-18T01:45:16.929Z,12.00
2019-05-18T01:50:17.143Z,12.00
2019-05-18T01:55:22.750Z,12.00
2019-05-18T02:00:27.335Z,11.90
2019-05-18T02:05:32.464Z,11.90
2019-05-18T02:10:37.956Z,11.80
2019-05-18T02:15:43.311Z,11.90
2019-05-18T02:20:48.298Z,11.90
2019-05-18T02:25:52.242Z,11.80
2019-05-18T02:30:56.238Z,11.90
2019-05-18T02:36:00.413Z,11.80
2019-05-18T02:41:04.819Z,11.80
2019-05-18T02:46:08.200Z,11.70
2019-05-18T02:51:12.027Z,11.70
2019-05-18T02:56:15.484Z,11.50
2019-05-18T03:01:20.196Z,11.60
2019-05-18T03:06:23.621Z,11.50
2019-05-18T03:11:27.015Z,11.50
2019-05-18T03:16:31.263Z,11.60
2019-05-18T03:21:35.760Z,11.60
2019-05-18T03:26:40.343Z,11.60
2019-05-18T03:31:44.715Z,11.40
2019-05-18T03:36:49.040Z,11.50
2019-05-18T03:41:53.157Z,11.50
2019-05-18T03:46:57.287Z,11.40
2019-05-18T03:52:01.431Z,11.30
2019-05-18T03:57:05.738Z,11.30
2019-05-18T04:02:10.818Z,11.30
2019-05-18T04:07:15.819Z,11.40
2019-05-18T04:12:21.033Z,11.40
2019-05-18T04:17:26.119Z,11.40
2019-05-18T04:22:31.275Z,11.40
2019-05-18T04:27:36.752Z,11.40
2019-05-18T04:32:42.196Z,11.40
2019-05-18T04:37:47.084Z,11.40
2019-05-18T04:42:53.391Z,11.50
2019-05-18T04:47:58.503Z,11.50
2019-05-18T04:53:03.982Z,11.60
2019-05-18T04:58:09.052Z,11.60
2019-05-18T05:03:14.176Z,11.60
2019-05-18T05:08:19.582Z,11.70
2019-05-18T05:13:24.881Z,11.80
2019-05-18T05:18:31.876Z,11.80
2019-05-18T05:23:37.077Z,11.90
2019-05-18T05:28:41.980Z,12.00
2019-05-18T05:33:47.188Z,12.10
2019-05-18T05:38:52.227Z,12.20
2019-05-18T05:43:58.585Z,12.20
2019-05-18T05:49:03.999Z,12.30
2019-05-18T05:54:09.918Z,12.60
2019-05-18T05:59:15.495Z,12.70
2019-05-18T06:04:20.678Z,12.80
2019-05-18T06:09:26.211Z,12.90
2019-05-18T06:14:31.883Z,13.10
2019-05-18T06:19:36.999Z,13.20
2019-05-18T06:24:42.576Z,13.30
2019-05-18T06:29:47.758Z,13.20
2019-05-18T06:34:53.671Z,13.50
2019-05-18T06:39:58.952Z,13.70
2019-05-18T06:45:05.349Z,13.80
2019-05-18T06:50:12.755Z,13.80
2019-05-18T06:55:19.166Z,13.90
2019-05-18T07:00:24.559Z,14.40
2019-05-18T07:05:29.595Z,14.60
2019-05-18T07:10:35.287Z,15.00
2019-05-18T07:15:39.210Z,15.30
2019-05-18T07:20:43.449Z,15.30
2019-05-18T07:25:47.963Z,15.50
2019-05-18T07:30:52.377Z,15.80
2019-05-18T07:35:56.757Z,16.00
2019-05-18T07:41:00.352Z,16.00
2019-05-18T07:46:08.748Z,16.20
2019-05-18T07:51:13.222Z,16.30
2019-05-18T07:56:16.775Z,16.40
2019-05-18T08:01:20.652Z,16.50
2019-05-18T08:06:25.205Z,16.50
2019-05-18T08:11:30.337Z,16.70
2019-05-18T08:16:34.974Z,16.80
2019-05-18T08:21:52.283Z,16.90
2019-05-18T08:26:45.834Z,17.20
2019-05-18T08:31:50.400Z,17.30
2019-05-18T08:36:54.646Z,17.60
2019-05-18T08:41:58.997Z,17.70
2019-05-18T08:47:03.548Z,17.70
2019-05-18T08:52:08.832Z,17.90
2019-05-18T08:57:14.831Z,18.00
2019-05-18T09:02:20.062Z,18.00
2019-05-18T09:07:25.485Z,18.20
2019-05-18T09:12:31.998Z,18.10
2019-05-18T09:17:37.803Z,18.40
2019-05-18T09:22:43.150Z,18.40
2019-05-18T09:27:49.284Z,18.40
2019-05-18T09:32:54.516Z,18.60
2019-05-18T09:38:01.745Z,18.90
2019-05-18T09:43:07.504Z,19.00
2019-05-18T09:48:13.674Z,18.80
2019-05-18T09:53:18.689Z,19.00
2019-05-18T09:58:23.939Z,19.30
2019-05-18T10:03:29.790Z,19.90
2019-05-18T10:08:35.120Z,20.20
2019-05-18T10:13:40.334Z,20.30
2019-05-18T10:18:45.735Z,20.90
2019-05-18T10:23:50.793Z,21.20
2019-05-18T10:28:57.235Z,21.10
2019-05-18T10:34:02.636Z,21.20
2019-05-18T10:39:08.846Z,21.60
2019-05-18T10:44:14.507Z,21.80
2019-05-18T10:49:19.774Z,21.70
2019-05-18T10:54:25.445Z,21.60
2019-05-18T10:59:30.985Z,21.50
2019-05-18T11:04:36.735Z,21.40
2019-05-18T11:09:42.474Z,21.50
2019-05-18T11:14:47.673Z,22.00
2019-05-18T11:19:52.949Z,22.60
2019-05-18T11:24:58.434Z,23.10
2019-05-18T11:30:05.770Z,23.50
2019-05-18T11:35:11.724Z,23.90
2019-05-18T11:40:18.110Z,24.20
2019-05-18T11:45:24.750Z,24.30
2019-05-18T11:50:30.372Z,24.10
2019-05-18T11:55:35.830Z,23.80
2019-05-18T12:00:41.173Z,23.90
2019-05-18T12:05:45.646Z,24.00
2019-05-18T12:10:49.963Z,24.30
2019-05-18T12:15:54.231Z,24.10
2019-05-18T12:21:03.619Z,24.00
2019-05-18T12:26:09.063Z,23.90
2019-05-18T12:31:13.013Z,23.90
2019-05-18T12:36:16.645Z,24.00
2019-05-18T12:41:30.036Z,23.80
2019-05-18T12:46:34.410Z,23.80
2019-05-18T12:51:39.191Z,23.80
2019-05-18T12:56:44.056Z,23.60
2019-05-18T13:01:48.504Z,22.90
2019-05-18T13:06:52.909Z,22.30
2019-05-18T13:11:58.222Z,20.90
2019-05-18T13:17:13.425Z,20.30
2019-05-18T13:22:24.723Z,19.80
2019-05-18T13:27:48.401Z,19.70
2019-05-18T13:33:11.026Z,19.50
2019-05-18T13:38:20.331Z,19.10
2019-05-18T13:43:29.885Z,19.30
2019-05-18T13:48:43.660Z,19.50
2019-05-18T13:53:47.705Z,19.40
2019-05-18T13:58:57.326Z,19.50
2019-05-18T14:04:06.216Z,19.70
2019-05-18T14:09:10.755Z,19.80
2019-05-18T14:14:16.094Z,19.80
2019-05-18T14:19:22.859Z,19.70
2019-05-18T14:24:28.385Z,19.80
2019-05-18T14:29:33.503Z,20.00
2019-05-18T14:34:38.624Z,20.10
2019-05-18T14:39:44.501Z,20.20
2019-05-18T16:14:41.231Z,19.80
2019-05-18T16:36:14.047Z,19.90
2019-05-18T16:41:18.009Z,19.80
2019-05-18T16:46:23.013Z,19.70
2019-05-18T16:51:26.564Z,19.50
2019-05-18T16:56:35.318Z,19.40
2019-05-18T17:01:38.989Z,19.30
2019-05-18T17:06:43.407Z,19.40
2019-05-18T17:11:48.243Z,19.40
2019-05-18T17:16:52.732Z,19.30
2019-05-18T17:21:57.086Z,19.20
2019-05-18T17:27:01.397Z,19.20
2019-05-18T17:32:06.059Z,19.10
2019-05-18T17:37:10.639Z,19.00
2019-05-18T17:42:20.059Z,18.80
2019-05-18T17:47:25.003Z,18.80
2019-05-18T17:52:30.536Z,18.80
2019-05-18T17:57:34.888Z,18.60
2019-05-18T18:02:39.224Z,18.50
2019-05-18T18:07:44.318Z,18.20
2019-05-18T18:12:49.955Z,18.10
2019-05-18T18:17:55.160Z,18.00
2019-05-18T18:23:00.211Z,17.80
2019-05-18T18:28:06.351Z,17.70
2019-05-18T18:33:12.159Z,17.50
2019-05-18T18:38:18.449Z,17.30
2019-05-18T18:43:24.316Z,17.10
2019-05-18T18:48:30.257Z,17.00
2019-05-18T18:53:35.372Z,16.80
2019-05-18T18:58:40.419Z,16.80
2019-05-18T19:03:46.651Z,16.70
2019-05-18T19:08:52.083Z,16.70
2019-05-18T19:13:57.347Z,16.50
2019-05-18T19:19:02.970Z,16.40
2019-05-18T19:24:09.049Z,16.30
2019-05-18T19:29:14.923Z,16.20
2019-05-18T19:34:20.128Z,16.10
2019-05-18T19:39:26.562Z,15.90
2019-05-18T19:44:32.371Z,16.00
2019-05-18T19:49:37.605Z,15.90
2019-05-18T19:54:43.018Z,15.90
2019-05-18T19:59:48.081Z,15.90
2019-05-18T20:05:06.720Z,16.00
2019-05-18T20:10:00.394Z,15.80
2019-05-18T20:15:09.407Z,15.90
2019-05-18T20:20:13.906Z,16.00
2019-05-18T20:25:19.536Z,15.90
2019-05-18T20:30:25.147Z,15.80
2019-05-18T20:35:30.897Z,15.80
2019-05-18T20:40:37.626Z,15.80
2019-05-18T20:45:43.044Z,15.70
2019-05-18T20:50:47.950Z,15.70
2019-05-18T20:55:53.466Z,15.70
2019-05-18T21:00:58.255Z,15.70
2019-05-18T21:06:03.033Z,15.60
2019-05-18T21:11:07.583Z,15.50
2019-05-18T21:16:13.991Z,15.40
2019-05-18T21:21:24.670Z,15.40
2019-05-18T21:26:25.329Z,15.40
2019-05-18T21:31:30.295Z,15.30
2019-05-18T21:36:34.897Z,15.20
2019-05-18T21:41:39.649Z,15.30
2019-05-18T21:46:44.602Z,15.40
2019-05-18T21:51:50.157Z,15.40
2019-05-18T21:56:54.523Z,15.40
2019-05-18T22:01:58.704Z,15.40
2019-05-18T22:07:03.029Z,15.30
2019-05-18T22:12:06.694Z,15.30
2019-05-18T22:17:11.764Z,15.30
2019-05-18T22:22:17.458Z,15.30
2019-05-18T22:27:23.101Z,15.30
2019-05-18T22:32:27.352Z,15.20
2019-05-18T22:37:32.275Z,15.20
2019-05-18T22:42:38.450Z,15.20
2019-05-18T22:47:43.834Z,15.20
2019-05-18T22:52:49.000Z,15.20
2019-05-18T22:57:54.171Z,15.20
2019-05-18T23:02:59.061Z,15.20
2019-05-18T23:08:03.549Z,15.20
2019-05-18T23:13:09.159Z,15.10
2019-05-18T23:18:14.717Z,15.10
2019-05-18T23:23:20.395Z,15.00
2019-05-18T23:28:25.548Z,15.00
2019-05-18T23:33:30.582Z,15.00
2019-05-18T23:38:36.045Z,14.90
2019-05-18T23:43:41.510Z,14.90
2019-05-18T23:48:46.790Z,14.90
2019-05-18T23:53:53.775Z,14.90
2019-05-18T23:58:58.972Z,14.90
